sensor_id;sensor_type;location;lat;lon;timestamp;temperature;humidity
42913;DHT22;50720;54.324;18.558;2022-11-21T00:02:09;-0.20;99.90
42913;DHT22;50720;54.324;18.558;2022-11-21T00:04:38;-0.20;99.90
42913;DHT22;50720;54.324;18.558;2022-11-21T00:07:08;-0.30;99.90
42913;DHT22;50720;54.324;18.558;2022-11-21T00:09:38;-0.30;99.90
42913;DHT22;50720;54.324;18.558;2022-11-21T00:12:08;-0.20;99.90
42913;DHT22;50720;54.324;18.558;2022-11-21T00:14:37;-0.20;99.90
42913;DHT22;50720;54.324;18.558;2022-11-21T00:17:08;-0.20;99.90
42913;DHT22;50720;54.324;18.558;2022-11-21T00:19:37;-0.20;99.90
42913;DHT22;50720;54.324;18.558;2022-11-21T00:22:07;-0.30;99.90
42913;DHT22;50720;54.324;18.558;2022-11-21T00:24:37;-0.30;99.90
42913;DHT22;50720;54.324;18.558;2022-11-21T00:27:07;-0.20;99.90
42913;DHT22;50720;54.324;18.558;2022-11-21T00:29:36;-0.20;99.90
42913;DHT22;50720;54.324;18.558;2022-11-21T00:32:06;-0.20;99.90
42913;DHT22;50720;54.324;18.558;2022-11-21T00:34:37;-0.20;99.90
42913;DHT22;50720;54.324;18.558;2022-11-21T00:37:08;-0.30;99.90
42913;DHT22;50720;54.324;18.558;2022-11-21T00:39:37;-0.20;99.90
42913;DHT22;50720;54.324;18.558;2022-11-21T00:42:07;-0.20;99.90
42913;DHT22;50720;54.324;18.558;2022-11-21T00:44:37;-0.20;99.90
42913;DHT22;50720;54.324;18.558;2022-11-21T00:47:07;-0.30;99.90
42913;DHT22;50720;54.324;18.558;2022-11-21T00:49:38;-0.30;99.90
42913;DHT22;50720;54.324;18.558;2022-11-21T00:52:08;-0.30;99.90
42913;DHT22;50720;54.324;18.558;2022-11-21T00:54:37;-0.30;99.90
42913;DHT22;50720;54.324;18.558;2022-11-21T00:57:07;-0.20;99.90
42913;DHT22;50720;54.324;18.558;2022-11-21T00:59:37;-0.20;99.90
42913;DHT22;50720;54.324;18.558;2022-11-21T01:02:06;-0.20;99.90
42913;DHT22;50720;54.324;18.558;2022-11-21T01:04:39;-0.20;99.90
42913;DHT22;50720;54.324;18.558;2022-11-21T01:07:09;-0.20;99.90
42913;DHT22;50720;54.324;18.558;2022-11-21T01:09:41;-0.30;99.90
42913;DHT22;50720;54.324;18.558;2022-11-21T01:12:12;-0.20;99.90
42913;DHT22;50720;54.324;18.558;2022-11-21T01:14:41;-0.20;99.90
42913;DHT22;50720;54.324;18.558;2022-11-21T01:17:11;-0.30;99.90
42913;DHT22;50720;54.324;18.558;2022-11-21T01:19:43;-0.30;99.90
42913;DHT22;50720;54.324;18.558;2022-11-21T01:22:13;-0.20;99.90
42913;DHT22;50720;54.324;18.558;2022-11-21T01:24:42;-0.20;99.90
42913;DHT22;50720;54.324;18.558;2022-11-21T01:27:12;-0.20;99.90
42913;DHT22;50720;54.324;18.558;2022-11-21T01:29:41;-0.20;99.90
42913;DHT22;50720;54.324;18.558;2022-11-21T01:32:12;-0.20;99.90
42913;DHT22;50720;54.324;18.558;2022-11-21T01:34:42;-0.20;99.90
42913;DHT22;50720;54.324;18.558;2022-11-21T01:37:12;-0.30;99.90
42913;DHT22;50720;54.324;18.558;2022-11-21T01:39:41;-0.30;99.90
42913;DHT22;50720;54.324;18.558;2022-11-21T01:42:12;-0.40;99.90
42913;DHT22;50720;54.324;18.558;2022-11-21T01:44:47;-0.30;99.90
42913;DHT22;50720;54.324;18.558;2022-11-21T01:47:18;-0.30;99.90
42913;DHT22;50720;54.324;18.558;2022-11-21T01:49:51;-0.30;99.90
42913;DHT22;50720;54.324;18.558;2022-11-21T01:52:25;-0.40;99.90
42913;DHT22;50720;54.324;18.558;2022-11-21T01:54:58;-0.40;99.90
42913;DHT22;50720;54.324;18.558;2022-11-21T01:57:32;-0.40;99.90
42913;DHT22;50720;54.324;18.558;2022-11-21T02:00:07;-0.40;99.90
42913;DHT22;50720;54.324;18.558;2022-11-21T02:02:40;-0.40;99.90
42913;DHT22;50720;54.324;18.558;2022-11-21T02:05:15;-0.40;99.90
42913;DHT22;50720;54.324;18.558;2022-11-21T02:07:48;-0.50;99.90
42913;DHT22;50720;54.324;18.558;2022-11-21T02:10:18;-0.40;99.90
42913;DHT22;50720;54.324;18.558;2022-11-21T02:12:50;-0.40;99.90
42913;DHT22;50720;54.324;18.558;2022-11-21T02:15:21;-0.40;99.90
42913;DHT22;50720;54.324;18.558;2022-11-21T02:17:52;-0.40;99.90
42913;DHT22;50720;54.324;18.558;2022-11-21T02:20:24;-0.40;99.90
42913;DHT22;50720;54.324;18.558;2022-11-21T02:23:01;-0.50;99.90
42913;DHT22;50720;54.324;18.558;2022-11-21T02:25:36;-0.50;99.90
42913;DHT22;50720;54.324;18.558;2022-11-21T02:28:08;-0.40;99.90
42913;DHT22;50720;54.324;18.558;2022-11-21T02:30:40;-0.40;99.90
42913;DHT22;50720;54.324;18.558;2022-11-21T02:33:11;-0.40;99.90
42913;DHT22;50720;54.324;18.558;2022-11-21T02:35:41;-0.40;99.90
42913;DHT22;50720;54.324;18.558;2022-11-21T02:38:15;-0.40;99.90
42913;DHT22;50720;54.324;18.558;2022-11-21T02:40:52;-0.40;99.90
42913;DHT22;50720;54.324;18.558;2022-11-21T02:43:25;-0.50;99.90
42913;DHT22;50720;54.324;18.558;2022-11-21T02:45:56;-0.40;99.90
42913;DHT22;50720;54.324;18.558;2022-11-21T02:48:27;-0.50;99.90
42913;DHT22;50720;54.324;18.558;2022-11-21T02:50:57;-0.40;99.90
42913;DHT22;50720;54.324;18.558;2022-11-21T02:53:27;-0.50;99.90
42913;DHT22;50720;54.324;18.558;2022-11-21T02:55:58;-0.50;99.90
42913;DHT22;50720;54.324;18.558;2022-11-21T02:58:29;-0.50;99.90
42913;DHT22;50720;54.324;18.558;2022-11-21T03:00:58;-0.50;99.90
42913;DHT22;50720;54.324;18.558;2022-11-21T03:03:28;-0.50;99.90
42913;DHT22;50720;54.324;18.558;2022-11-21T03:05:58;-0.50;99.90
42913;DHT22;50720;54.324;18.558;2022-11-21T03:08:28;-0.50;99.90
42913;DHT22;50720;54.324;18.558;2022-11-21T03:10:59;-0.50;99.90
42913;DHT22;50720;54.324;18.558;2022-11-21T03:13:29;-0.50;99.90
42913;DHT22;50720;54.324;18.558;2022-11-21T03:15:59;-0.50;99.90
42913;DHT22;50720;54.324;18.558;2022-11-21T03:18:28;-0.40;99.90
42913;DHT22;50720;54.324;18.558;2022-11-21T03:20:58;-0.40;99.90
42913;DHT22;50720;54.324;18.558;2022-11-21T03:23:27;-0.50;99.90
42913;DHT22;50720;54.324;18.558;2022-11-21T03:25:59;-0.40;99.90
42913;DHT22;50720;54.324;18.558;2022-11-21T03:28:30;-0.50;99.90
42913;DHT22;50720;54.324;18.558;2022-11-21T03:30:59;-0.40;99.90
42913;DHT22;50720;54.324;18.558;2022-11-21T03:33:30;-0.50;99.90
42913;DHT22;50720;54.324;18.558;2022-11-21T03:35:59;-0.40;99.90
42913;DHT22;50720;54.324;18.558;2022-11-21T03:38:29;-0.40;99.90
42913;DHT22;50720;54.324;18.558;2022-11-21T03:41:04;-0.40;99.90
42913;DHT22;50720;54.324;18.558;2022-11-21T03:43:54;-0.40;99.90
42913;DHT22;50720;54.324;18.558;2022-11-21T03:46:25;-0.40;99.90
42913;DHT22;50720;54.324;18.558;2022-11-21T03:48:55;-0.40;99.90
42913;DHT22;50720;54.324;18.558;2022-11-21T03:51:25;-0.40;99.90
42913;DHT22;50720;54.324;18.558;2022-11-21T03:53:55;-0.40;99.90
42913;DHT22;50720;54.324;18.558;2022-11-21T03:56:26;-0.30;99.90
42913;DHT22;50720;54.324;18.558;2022-11-21T03:58:56;-0.40;99.90
42913;DHT22;50720;54.324;18.558;2022-11-21T04:01:26;-0.40;99.90
42913;DHT22;50720;54.324;18.558;2022-11-21T04:04:03;-0.30;99.90
42913;DHT22;50720;54.324;18.558;2022-11-21T04:06:33;-0.30;99.90
42913;DHT22;50720;54.324;18.558;2022-11-21T04:09:03;-0.30;99.90
42913;DHT22;50720;54.324;18.558;2022-11-21T04:11:34;-0.30;99.90
42913;DHT22;50720;54.324;18.558;2022-11-21T04:14:04;-0.20;99.90
42913;DHT22;50720;54.324;18.558;2022-11-21T04:16:33;-0.20;99.90
42913;DHT22;50720;54.324;18.558;2022-11-21T04:19:03;-0.30;99.90
42913;DHT22;50720;54.324;18.558;2022-11-21T04:21:32;-0.20;99.90
42913;DHT22;50720;54.324;18.558;2022-11-21T04:24:03;-0.30;99.90
42913;DHT22;50720;54.324;18.558;2022-11-21T04:26:34;-0.40;99.90
42913;DHT22;50720;54.324;18.558;2022-11-21T04:29:04;-0.30;99.90
42913;DHT22;50720;54.324;18.558;2022-11-21T04:31:33;-0.30;99.90
42913;DHT22;50720;54.324;18.558;2022-11-21T04:34:03;-0.30;99.90
42913;DHT22;50720;54.324;18.558;2022-11-21T04:36:33;-0.30;99.90
42913;DHT22;50720;54.324;18.558;2022-11-21T04:39:03;-0.30;99.90
42913;DHT22;50720;54.324;18.558;2022-11-21T04:41:34;-0.30;99.90
42913;DHT22;50720;54.324;18.558;2022-11-21T04:44:04;-0.30;99.90
42913;DHT22;50720;54.324;18.558;2022-11-21T04:46:34;-0.40;99.90
42913;DHT22;50720;54.324;18.558;2022-11-21T04:49:04;-0.40;99.90
42913;DHT22;50720;54.324;18.558;2022-11-21T04:51:33;-0.50;99.90
42913;DHT22;50720;54.324;18.558;2022-11-21T04:54:03;-0.40;99.90
42913;DHT22;50720;54.324;18.558;2022-11-21T04:56:34;-0.40;99.90
42913;DHT22;50720;54.324;18.558;2022-11-21T04:59:05;-0.50;99.90
42913;DHT22;50720;54.324;18.558;2022-11-21T05:01:34;-0.60;99.90
42913;DHT22;50720;54.324;18.558;2022-11-21T05:04:06;-0.50;99.90
42913;DHT22;50720;54.324;18.558;2022-11-21T05:06:35;-0.60;99.90
42913;DHT22;50720;54.324;18.558;2022-11-21T05:09:05;-0.60;99.90
42913;DHT22;50720;54.324;18.558;2022-11-21T05:11:36;-0.60;99.90
42913;DHT22;50720;54.324;18.558;2022-11-21T05:14:24;-0.60;99.90
42913;DHT22;50720;54.324;18.558;2022-11-21T05:16:54;-0.60;99.90
42913;DHT22;50720;54.324;18.558;2022-11-21T05:19:24;-0.60;99.90
42913;DHT22;50720;54.324;18.558;2022-11-21T05:21:53;-0.60;99.90
42913;DHT22;50720;54.324;18.558;2022-11-21T05:24:23;-0.70;99.90
42913;DHT22;50720;54.324;18.558;2022-11-21T05:26:55;-0.70;99.90
42913;DHT22;50720;54.324;18.558;2022-11-21T05:29:25;-0.70;99.90
42913;DHT22;50720;54.324;18.558;2022-11-21T05:31:55;-0.70;99.90
42913;DHT22;50720;54.324;18.558;2022-11-21T05:34:25;-0.60;99.90
42913;DHT22;50720;54.324;18.558;2022-11-21T05:36:55;-0.60;99.90
42913;DHT22;50720;54.324;18.558;2022-11-21T05:39:26;-0.60;99.90
42913;DHT22;50720;54.324;18.558;2022-11-21T05:41:57;-0.60;99.90
42913;DHT22;50720;54.324;18.558;2022-11-21T05:44:30;-0.60;99.90
42913;DHT22;50720;54.324;18.558;2022-11-21T05:46:58;-0.60;99.90
42913;DHT22;50720;54.324;18.558;2022-11-21T05:49:28;-0.50;99.90
42913;DHT22;50720;54.324;18.558;2022-11-21T05:51:57;-0.40;99.90
42913;DHT22;50720;54.324;18.558;2022-11-21T05:54:28;-0.40;99.90
42913;DHT22;50720;54.324;18.558;2022-11-21T05:56:59;-0.40;99.90
42913;DHT22;50720;54.324;18.558;2022-11-21T05:59:29;-0.40;99.90
42913;DHT22;50720;54.324;18.558;2022-11-21T06:01:58;-0.50;99.90
42913;DHT22;50720;54.324;18.558;2022-11-21T06:04:46;-0.50;99.90
42913;DHT22;50720;54.324;18.558;2022-11-21T06:07:15;-0.40;99.90
42913;DHT22;50720;54.324;18.558;2022-11-21T06:09:45;-0.40;99.90
42913;DHT22;50720;54.324;18.558;2022-11-21T06:12:16;-0.40;99.90
42913;DHT22;50720;54.324;18.558;2022-11-21T06:14:52;-0.40;99.90
42913;DHT22;50720;54.324;18.558;2022-11-21T06:17:21;-0.50;99.90
42913;DHT22;50720;54.324;18.558;2022-11-21T06:19:51;-0.50;99.90
42913;DHT22;50720;54.324;18.558;2022-11-21T06:22:20;-0.50;99.90
42913;DHT22;50720;54.324;18.558;2022-11-21T06:24:50;-0.50;99.90
42913;DHT22;50720;54.324;18.558;2022-11-21T06:27:21;-0.40;99.90
42913;DHT22;50720;54.324;18.558;2022-11-21T06:29:51;-0.50;99.90
42913;DHT22;50720;54.324;18.558;2022-11-21T06:32:20;-0.50;99.90
42913;DHT22;50720;54.324;18.558;2022-11-21T06:34:50;-0.50;99.90
42913;DHT22;50720;54.324;18.558;2022-11-21T06:37:20;-0.60;99.90
42913;DHT22;50720;54.324;18.558;2022-11-21T06:39:50;-0.60;99.90
42913;DHT22;50720;54.324;18.558;2022-11-21T06:42:21;-0.70;99.90
42913;DHT22;50720;54.324;18.558;2022-11-21T06:44:51;-0.70;99.90
42913;DHT22;50720;54.324;18.558;2022-11-21T06:47:21;-0.70;99.90
42913;DHT22;50720;54.324;18.558;2022-11-21T06:49:51;-0.80;99.90
42913;DHT22;50720;54.324;18.558;2022-11-21T06:52:20;-0.70;99.90
42913;DHT22;50720;54.324;18.558;2022-11-21T06:54:50;-0.80;99.90
42913;DHT22;50720;54.324;18.558;2022-11-21T06:57:21;-0.90;99.90
42913;DHT22;50720;54.324;18.558;2022-11-21T06:59:51;-0.90;99.90
42913;DHT22;50720;54.324;18.558;2022-11-21T07:02:20;-0.90;99.90
42913;DHT22;50720;54.324;18.558;2022-11-21T07:04:50;-0.90;99.90
42913;DHT22;50720;54.324;18.558;2022-11-21T07:07:20;-0.90;99.90
42913;DHT22;50720;54.324;18.558;2022-11-21T07:09:50;-0.90;99.90
42913;DHT22;50720;54.324;18.558;2022-11-21T07:12:21;-0.90;99.90
42913;DHT22;50720;54.324;18.558;2022-11-21T07:15:09;-0.90;99.90
42913;DHT22;50720;54.324;18.558;2022-11-21T07:17:39;-0.90;99.90
42913;DHT22;50720;54.324;18.558;2022-11-21T07:20:10;-0.90;99.90
42913;DHT22;50720;54.324;18.558;2022-11-21T07:22:39;-0.80;99.90
42913;DHT22;50720;54.324;18.558;2022-11-21T07:25:09;-0.80;99.90
42913;DHT22;50720;54.324;18.558;2022-11-21T07:27:40;-0.80;99.90
42913;DHT22;50720;54.324;18.558;2022-11-21T07:30:11;-0.90;99.90
42913;DHT22;50720;54.324;18.558;2022-11-21T07:32:41;-0.80;99.90
42913;DHT22;50720;54.324;18.558;2022-11-21T07:35:11;-0.80;99.90
42913;DHT22;50720;54.324;18.558;2022-11-21T07:37:40;-0.80;99.90
42913;DHT22;50720;54.324;18.558;2022-11-21T07:40:12;-0.80;99.90
42913;DHT22;50720;54.324;18.558;2022-11-21T07:42:43;-0.80;99.90
42913;DHT22;50720;54.324;18.558;2022-11-21T07:45:13;-0.80;99.90
42913;DHT22;50720;54.324;18.558;2022-11-21T07:47:43;-0.90;99.90
42913;DHT22;50720;54.324;18.558;2022-11-21T07:50:14;-0.80;99.90
42913;DHT22;50720;54.324;18.558;2022-11-21T07:52:44;-0.70;99.90
42913;DHT22;50720;54.324;18.558;2022-11-21T07:55:14;-0.80;99.90
42913;DHT22;50720;54.324;18.558;2022-11-21T07:57:44;-0.80;99.90
42913;DHT22;50720;54.324;18.558;2022-11-21T08:00:15;-0.80;99.90
42913;DHT22;50720;54.324;18.558;2022-11-21T08:02:45;-0.80;99.90
42913;DHT22;50720;54.324;18.558;2022-11-21T08:05:15;-0.80;99.90
42913;DHT22;50720;54.324;18.558;2022-11-21T08:07:44;-0.80;99.90
42913;DHT22;50720;54.324;18.558;2022-11-21T08:10:15;-0.70;99.90
42913;DHT22;50720;54.324;18.558;2022-11-21T08:12:45;-0.70;99.90
42913;DHT22;50720;54.324;18.558;2022-11-21T08:15:15;-0.60;99.90
42913;DHT22;50720;54.324;18.558;2022-11-21T08:17:45;-0.80;99.90
42913;DHT22;50720;54.324;18.558;2022-11-21T08:20:15;-0.80;99.90
42913;DHT22;50720;54.324;18.558;2022-11-21T08:22:44;-0.90;99.90
42913;DHT22;50720;54.324;18.558;2022-11-21T08:25:15;-0.90;99.90
42913;DHT22;50720;54.324;18.558;2022-11-21T08:27:45;-0.90;99.90
42913;DHT22;50720;54.324;18.558;2022-11-21T08:30:15;-0.80;99.90
42913;DHT22;50720;54.324;18.558;2022-11-21T08:32:44;-1.00;99.90
42913;DHT22;50720;54.324;18.558;2022-11-21T08:35:15;-0.90;99.90
42913;DHT22;50720;54.324;18.558;2022-11-21T08:37:44;-0.90;99.90
42913;DHT22;50720;54.324;18.558;2022-11-21T08:40:15;-0.80;99.90
42913;DHT22;50720;54.324;18.558;2022-11-21T08:42:46;-0.80;99.90
42913;DHT22;50720;54.324;18.558;2022-11-21T08:45:16;-0.60;99.90
42913;DHT22;50720;54.324;18.558;2022-11-21T08:47:45;-0.60;99.90
42913;DHT22;50720;54.324;18.558;2022-11-21T08:50:16;-0.60;99.90
42913;DHT22;50720;54.324;18.558;2022-11-21T08:52:45;-0.50;99.90
42913;DHT22;50720;54.324;18.558;2022-11-21T08:55:16;-0.30;99.90
42913;DHT22;50720;54.324;18.558;2022-11-21T08:57:47;-0.20;99.90
42913;DHT22;50720;54.324;18.558;2022-11-21T09:00:17;0.00;99.90
42913;DHT22;50720;54.324;18.558;2022-11-21T09:02:47;0.00;99.90
42913;DHT22;50720;54.324;18.558;2022-11-21T09:05:17;0.00;99.90
42913;DHT22;50720;54.324;18.558;2022-11-21T09:07:47;0.00;99.90
42913;DHT22;50720;54.324;18.558;2022-11-21T09:10:17;-0.10;99.90
42913;DHT22;50720;54.324;18.558;2022-11-21T09:12:48;0.00;99.90
42913;DHT22;50720;54.324;18.558;2022-11-21T09:15:18;0.00;99.90
42913;DHT22;50720;54.324;18.558;2022-11-21T09:18:04;-0.10;99.90
42913;DHT22;50720;54.324;18.558;2022-11-21T09:20:39;-0.20;99.90
42913;DHT22;50720;54.324;18.558;2022-11-21T09:23:11;-0.20;99.90
42913;DHT22;50720;54.324;18.558;2022-11-21T09:25:41;-0.30;99.90
42913;DHT22;50720;54.324;18.558;2022-11-21T09:28:13;-0.40;99.90
42913;DHT22;50720;54.324;18.558;2022-11-21T09:30:43;-0.30;99.90
42913;DHT22;50720;54.324;18.558;2022-11-21T09:33:14;-0.20;99.90
42913;DHT22;50720;54.324;18.558;2022-11-21T09:35:45;-0.20;99.90
42913;DHT22;50720;54.324;18.558;2022-11-21T09:38:14;-0.30;99.90
42913;DHT22;50720;54.324;18.558;2022-11-21T09:40:51;-0.40;99.90
42913;DHT22;50720;54.324;18.558;2022-11-21T09:43:42;-0.50;99.90
42913;DHT22;50720;54.324;18.558;2022-11-21T09:46:24;-0.50;99.90
42913;DHT22;50720;54.324;18.558;2022-11-21T09:49:01;-0.60;99.90
42913;DHT22;50720;54.324;18.558;2022-11-21T09:51:34;-0.70;99.90
42913;DHT22;50720;54.324;18.558;2022-11-21T09:54:10;-0.70;99.90
42913;DHT22;50720;54.324;18.558;2022-11-21T09:56:42;-0.70;99.90
42913;DHT22;50720;54.324;18.558;2022-11-21T09:59:28;-0.80;99.90
42913;DHT22;50720;54.324;18.558;2022-11-21T10:01:59;-1.00;99.90
42913;DHT22;50720;54.324;18.558;2022-11-21T10:04:30;-1.10;99.90
42913;DHT22;50720;54.324;18.558;2022-11-21T10:07:02;-1.20;99.90
42913;DHT22;50720;54.324;18.558;2022-11-21T10:09:44;-1.20;99.90
42913;DHT22;50720;54.324;18.558;2022-11-21T10:12:23;-1.20;99.90
42913;DHT22;50720;54.324;18.558;2022-11-21T10:15:18;-1.20;99.90
42913;DHT22;50720;54.324;18.558;2022-11-21T10:18:02;-1.00;99.90
42913;DHT22;50720;54.324;18.558;2022-11-21T10:20:44;-1.00;99.90
42913;DHT22;50720;54.324;18.558;2022-11-21T10:23:42;-0.80;99.90
42913;DHT22;50720;54.324;18.558;2022-11-21T10:26:21;-1.00;99.90
42913;DHT22;50720;54.324;18.558;2022-11-21T10:28:55;-1.00;99.90
42913;DHT22;50720;54.324;18.558;2022-11-21T10:31:28;-1.00;99.90
42913;DHT22;50720;54.324;18.558;2022-11-21T10:34:02;-1.00;99.90
42913;DHT22;50720;54.324;18.558;2022-11-21T10:36:35;-0.90;99.90
42913;DHT22;50720;54.324;18.558;2022-11-21T10:39:13;-0.70;99.90
42913;DHT22;50720;54.324;18.558;2022-11-21T10:41:49;-0.70;99.90
42913;DHT22;50720;54.324;18.558;2022-11-21T10:44:25;-0.40;99.90
42913;DHT22;50720;54.324;18.558;2022-11-21T10:47:22;-0.40;99.90
42913;DHT22;50720;54.324;18.558;2022-11-21T10:50:01;-0.50;99.90
42913;DHT22;50720;54.324;18.558;2022-11-21T10:52:34;-0.50;99.90
42913;DHT22;50720;54.324;18.558;2022-11-21T10:55:07;-0.50;99.90
42913;DHT22;50720;54.324;18.558;2022-11-21T10:57:42;-0.40;99.90
42913;DHT22;50720;54.324;18.558;2022-11-21T11:00:21;-0.30;99.90
42913;DHT22;50720;54.324;18.558;2022-11-21T11:03:15;-0.10;99.90
42913;DHT22;50720;54.324;18.558;2022-11-21T11:05:54;-0.30;99.90
42913;DHT22;50720;54.324;18.558;2022-11-21T11:08:25;-0.30;99.90
42913;DHT22;50720;54.324;18.558;2022-11-21T11:11:04;-0.30;99.90
42913;DHT22;50720;54.324;18.558;2022-11-21T11:13:52;-0.50;99.90
42913;DHT22;50720;54.324;18.558;2022-11-21T11:16:24;-0.50;99.90
42913;DHT22;50720;54.324;18.558;2022-11-21T11:18:58;-0.50;99.90
42913;DHT22;50720;54.324;18.558;2022-11-21T11:21:30;0.00;99.90
42913;DHT22;50720;54.324;18.558;2022-11-21T11:24:20;0.50;99.90
42913;DHT22;50720;54.324;18.558;2022-11-21T11:26:54;1.30;99.90
42913;DHT22;50720;54.324;18.558;2022-11-21T11:29:25;1.60;99.90
42913;DHT22;50720;54.324;18.558;2022-11-21T11:32:00;1.60;99.90
42913;DHT22;50720;54.324;18.558;2022-11-21T11:34:39;1.90;99.90
42913;DHT22;50720;54.324;18.558;2022-11-21T11:37:12;1.80;99.90
42913;DHT22;50720;54.324;18.558;2022-11-21T11:39:52;2.20;99.90
42913;DHT22;50720;54.324;18.558;2022-11-21T11:42:45;2.30;99.90
42913;DHT22;50720;54.324;18.558;2022-11-21T11:45:51;2.70;99.90
42913;DHT22;50720;54.324;18.558;2022-11-21T11:48:42;2.40;99.90
42913;DHT22;50720;54.324;18.558;2022-11-21T11:51:37;2.30;99.90
42913;DHT22;50720;54.324;18.558;2022-11-21T11:54:13;2.40;99.90
42913;DHT22;50720;54.324;18.558;2022-11-21T11:56:45;2.00;99.90
42913;DHT22;50720;54.324;18.558;2022-11-21T11:59:17;2.10;99.90
42913;DHT22;50720;54.324;18.558;2022-11-21T12:01:52;2.40;99.90
42913;DHT22;50720;54.324;18.558;2022-11-21T12:04:27;3.00;99.90
42913;DHT22;50720;54.324;18.558;2022-11-21T12:07:01;2.50;99.90
42913;DHT22;50720;54.324;18.558;2022-11-21T12:10:02;2.50;99.90
42913;DHT22;50720;54.324;18.558;2022-11-21T12:12:35;2.60;99.90
42913;DHT22;50720;54.324;18.558;2022-11-21T12:15:11;2.70;99.90
42913;DHT22;50720;54.324;18.558;2022-11-21T12:18:11;2.60;99.90
42913;DHT22;50720;54.324;18.558;2022-11-21T12:20:49;2.60;99.90
42913;DHT22;50720;54.324;18.558;2022-11-21T12:23:26;2.40;99.90
42913;DHT22;50720;54.324;18.558;2022-11-21T12:26:04;2.10;99.90
42913;DHT22;50720;54.324;18.558;2022-11-21T12:28:41;2.00;99.90
42913;DHT22;50720;54.324;18.558;2022-11-21T12:31:20;1.40;99.90
42913;DHT22;50720;54.324;18.558;2022-11-21T12:33:56;1.10;99.90
42913;DHT22;50720;54.324;18.558;2022-11-21T12:36:31;0.80;99.90
42913;DHT22;50720;54.324;18.558;2022-11-21T12:42:02;0.20;99.90
42913;DHT22;50720;54.324;18.558;2022-11-21T12:45:00;-0.10;99.90
42913;DHT22;50720;54.324;18.558;2022-11-21T12:55:03;-0.40;99.90
42913;DHT22;50720;54.324;18.558;2022-11-21T12:57:45;-0.70;99.90
42913;DHT22;50720;54.324;18.558;2022-11-21T13:00:21;-0.90;99.90
42913;DHT22;50720;54.324;18.558;2022-11-21T13:03:11;-1.00;99.90
42913;DHT22;50720;54.324;18.558;2022-11-21T13:05:48;-1.00;99.90
42913;DHT22;50720;54.324;18.558;2022-11-21T13:08:21;-1.00;99.90
42913;DHT22;50720;54.324;18.558;2022-11-21T13:10:57;-1.10;99.90
42913;DHT22;50720;54.324;18.558;2022-11-21T13:13:45;-1.10;99.90
42913;DHT22;50720;54.324;18.558;2022-11-21T13:16:20;-1.10;99.90
42913;DHT22;50720;54.324;18.558;2022-11-21T13:19:15;-1.20;99.90
42913;DHT22;50720;54.324;18.558;2022-11-21T13:21:47;-1.20;99.90
42913;DHT22;50720;54.324;18.558;2022-11-21T13:24:55;-1.30;99.90
42913;DHT22;50720;54.324;18.558;2022-11-21T13:27:31;-1.40;99.90
42913;DHT22;50720;54.324;18.558;2022-11-21T13:30:22;-1.40;99.90
42913;DHT22;50720;54.324;18.558;2022-11-21T13:32:53;-1.50;99.90
42913;DHT22;50720;54.324;18.558;2022-11-21T13:38:28;-1.60;99.90
42913;DHT22;50720;54.324;18.558;2022-11-21T13:40:57;-1.60;99.90
42913;DHT22;50720;54.324;18.558;2022-11-21T13:43:46;-1.60;99.90
42913;DHT22;50720;54.324;18.558;2022-11-21T13:49:22;-1.60;99.90
42913;DHT22;50720;54.324;18.558;2022-11-21T13:51:55;-1.60;99.90
42913;DHT22;50720;54.324;18.558;2022-11-21T13:57:50;-1.50;99.90
42913;DHT22;50720;54.324;18.558;2022-11-21T14:04:19;-1.60;99.90
42913;DHT22;50720;54.324;18.558;2022-11-21T14:06:52;-1.60;99.90
42913;DHT22;50720;54.324;18.558;2022-11-21T14:09:26;-1.60;99.90
42913;DHT22;50720;54.324;18.558;2022-11-21T14:11:59;-1.60;99.90
42913;DHT22;50720;54.324;18.558;2022-11-21T14:14:33;-1.70;99.90
42913;DHT22;50720;54.324;18.558;2022-11-21T14:17:26;-1.70;99.90
42913;DHT22;50720;54.324;18.558;2022-11-21T14:20:00;-1.60;99.90
42913;DHT22;50720;54.324;18.558;2022-11-21T14:22:40;-1.60;99.90
42913;DHT22;50720;54.324;18.558;2022-11-21T14:25:16;-1.50;99.90
42913;DHT22;50720;54.324;18.558;2022-11-21T14:27:50;-1.60;99.90
42913;DHT22;50720;54.324;18.558;2022-11-21T14:30:31;-1.60;99.90
42913;DHT22;50720;54.324;18.558;2022-11-21T14:33:28;-1.60;99.90
42913;DHT22;50720;54.324;18.558;2022-11-21T14:36:01;-1.70;99.90
42913;DHT22;50720;54.324;18.558;2022-11-21T14:38:38;-1.60;99.90
42913;DHT22;50720;54.324;18.558;2022-11-21T14:41:23;-1.60;99.90
42913;DHT22;50720;54.324;18.558;2022-11-21T14:44:14;-1.60;99.90
42913;DHT22;50720;54.324;18.558;2022-11-21T14:46:45;-1.60;99.90
42913;DHT22;50720;54.324;18.558;2022-11-21T14:49:25;-1.60;99.90
42913;DHT22;50720;54.324;18.558;2022-11-21T14:52:16;-1.60;99.90
42913;DHT22;50720;54.324;18.558;2022-11-21T14:54:49;-1.60;99.90
42913;DHT22;50720;54.324;18.558;2022-11-21T14:57:40;-1.60;99.90
42913;DHT22;50720;54.324;18.558;2022-11-21T15:00:15;-1.70;99.90
42913;DHT22;50720;54.324;18.558;2022-11-21T15:03:17;-1.60;99.90
42913;DHT22;50720;54.324;18.558;2022-11-21T15:05:57;-1.70;99.90
42913;DHT22;50720;54.324;18.558;2022-11-21T15:08:32;-1.70;99.90
42913;DHT22;50720;54.324;18.558;2022-11-21T15:11:24;-1.70;99.90
42913;DHT22;50720;54.324;18.558;2022-11-21T15:14:03;-1.70;99.90
42913;DHT22;50720;54.324;18.558;2022-11-21T15:16:45;-1.60;99.90
42913;DHT22;50720;54.324;18.558;2022-11-21T15:19:20;-1.70;99.90
42913;DHT22;50720;54.324;18.558;2022-11-21T15:21:54;-1.60;99.90
42913;DHT22;50720;54.324;18.558;2022-11-21T15:24:29;-1.60;99.90
42913;DHT22;50720;54.324;18.558;2022-11-21T15:26:59;-1.60;99.90
42913;DHT22;50720;54.324;18.558;2022-11-21T15:29:30;-1.70;99.90
42913;DHT22;50720;54.324;18.558;2022-11-21T15:32:07;-1.60;99.90
42913;DHT22;50720;54.324;18.558;2022-11-21T15:34:43;-1.60;99.90
42913;DHT22;50720;54.324;18.558;2022-11-21T15:37:17;-1.60;99.90
42913;DHT22;50720;54.324;18.558;2022-11-21T15:39:47;-1.60;99.90
42913;DHT22;50720;54.324;18.558;2022-11-21T15:42:33;-1.70;99.90
42913;DHT22;50720;54.324;18.558;2022-11-21T15:45:20;-1.70;99.90
42913;DHT22;50720;54.324;18.558;2022-11-21T15:47:51;-1.60;99.90
42913;DHT22;50720;54.324;18.558;2022-11-21T15:50:22;-1.60;99.90
42913;DHT22;50720;54.324;18.558;2022-11-21T15:52:54;-1.60;99.90
42913;DHT22;50720;54.324;18.558;2022-11-21T15:55:25;-1.60;99.90
42913;DHT22;50720;54.324;18.558;2022-11-21T15:57:57;-1.60;99.90
42913;DHT22;50720;54.324;18.558;2022-11-21T16:00:26;-1.60;99.90
42913;DHT22;50720;54.324;18.558;2022-11-21T16:02:56;-1.60;99.90
42913;DHT22;50720;54.324;18.558;2022-11-21T16:05:26;-1.60;99.90
42913;DHT22;50720;54.324;18.558;2022-11-21T16:07:57;-1.70;99.90
42913;DHT22;50720;54.324;18.558;2022-11-21T16:10:27;-1.70;99.90
42913;DHT22;50720;54.324;18.558;2022-11-21T16:12:57;-1.70;99.90
42913;DHT22;50720;54.324;18.558;2022-11-21T16:15:26;-1.70;99.90
42913;DHT22;50720;54.324;18.558;2022-11-21T16:17:56;-1.70;99.90
42913;DHT22;50720;54.324;18.558;2022-11-21T16:20:26;-1.70;99.90
42913;DHT22;50720;54.324;18.558;2022-11-21T16:22:57;-1.70;99.90